Latest Weather Observations for West Roebuck

IDW60801

Issued at 12:35 am WST Friday 31 October 2014 (issued every 30 minutes, with the page automatically refreshed every 10 minutes)

About weather observations | Map of weather stations | Latest weather observations for WA | Other Formats
Station Details ID: 003096 Name: WEST ROEBUCK Lat: -17.90 Lon: 122.31 Height: 32.0 m
Data from the previous 72 hours. | See also: Recent months for locations in Western Australia
Date/Time
WST
Temp
°C
App
Temp
°C
Dew
Point
Rel
Hum
%
Delta-T
°C
Wind Press
QNH
hPa
Press
MSL
hPa
Rain
since 9 am
mm
Dir
 
Spd
km/h
Gust
km/h
Spd
kts
Gust
kts
31/12:30am 25.6 - - - - WNW 9 11 5 6 - - 0.0
31/12:00am 25.7 - - - - WNW 9 11 5 6 - - 0.0
 
Date/Time
WST
Temp
°C
App
Temp
°C
Dew
Point
Rel
Hum
%
Delta-T
°C
Wind Press
QNH
hPa
Press
MSL
hPa
Rain
since 9 am
mm
Dir
 
Spd
km/h
Gust
km/h
Spd
kts
Gust
kts
30/11:30pm 26.0 - - - - W 7 9 4 5 - - 0.0
30/11:00pm 26.1 - - - - WSW 9 13 5 7 - - 0.0
30/10:30pm 26.2 - - - - WNW 11 15 6 8 - - 0.0
30/10:00pm 26.1 - - - - WNW 9 13 5 7 - - 0.0
30/09:30pm 26.2 - - - - W 9 13 5 7 - - 0.0
30/09:00pm 26.5 - - - - WNW 9 13 5 7 - - 0.0
30/08:30pm 26.7 - - - - WNW 11 15 6 8 - - 0.0
30/08:00pm 26.9 - - - - WNW 13 15 7 8 - - 0.0
30/07:30pm 27.1 - - - - W 15 20 8 11 - - 0.0
30/07:00pm 27.3 - - - - WNW 17 24 9 13 - - 0.0
30/06:30pm 27.4 - - - - WNW 17 22 9 12 - - 0.0
30/06:00pm 27.6 - - - - WNW 19 30 10 16 - - 0.0
30/05:30pm 28.4 - - - - WNW 17 28 9 15 - - 0.0
30/05:00pm 29.3 - - - - WNW 24 32 13 17 - - 0.0
30/04:30pm 30.2 - - - - WNW 24 33 13 18 - - 0.0
30/04:00pm 31.5 - - - - WNW 22 32 12 17 - - 0.0
30/03:30pm 32.0 - - - - WNW 22 30 12 16 - - 0.0
30/03:00pm 32.2 - - - - WNW 22 32 12 17 - - 0.0
30/02:30pm 33.8 - - - - W 20 28 11 15 - - 0.0
30/02:00pm 33.6 - - - - W 19 28 10 15 - - 0.0
30/01:30pm 33.4 - - - - WNW 20 30 11 16 - - 0.0
30/01:00pm 34.7 - - - - W 17 24 9 13 - - 0.0
30/12:30pm 35.3 - - - - W 17 22 9 12 - - 0.0
30/12:00pm 34.7 - - - - W 15 28 8 15 - - 0.0
30/11:30am 33.8 - - - - W 13 24 7 13 - - 0.0
30/11:00am 34.4 - - - - W 17 28 9 15 - - 0.0
30/10:30am 34.7 - - - - WSW 13 24 7 13 - - 0.0
30/10:00am 35.4 - - - - W 13 20 7 11 - - 0.0
30/09:30am 34.7 - - - - SW 13 20 7 11 - - 0.0
30/09:00am 33.5 - - - - WSW 11 19 6 10 - - 0.0
30/08:30am 32.0 - - - - WSW 11 15 6 8 - - 0.0
30/08:00am 30.8 - - - - SW 11 17 6 9 - - 0.0
30/07:30am 29.7 - - - - WSW 11 15 6 8 - - 0.0
30/07:00am 28.6 - - - - SW 11 17 6 9 - - 0.0
30/06:30am 26.7 - - - - WSW 7 9 4 5 - - 0.0
30/06:00am 25.0 - - - - WNW 7 9 4 5 - - 0.0
30/05:30am 24.5 - - - - W 7 9 4 5 - - 0.0
30/05:00am 24.4 - - - - W 9 9 5 5 - - 0.0
30/04:30am 24.5 - - - - W 9 19 5 10 - - 0.0
30/04:00am 24.8 - - - - W 9 9 5 5 - - 0.0
30/03:30am 24.9 - - - - W 9 11 5 6 - - 0.0
30/03:00am 25.2 - - - - W 7 9 4 5 - - 0.0
30/02:30am 25.6 - - - - W 9 13 5 7 - - 0.0
30/02:00am 25.9 - - - - W 9 13 5 7 - - 0.0
30/01:30am 26.0 - - - - W 9 13 5 7 - - 0.0
30/01:00am 25.9 - - - - W 7 11 4 6 - - 0.0
30/12:30am 25.8 - - - - W 11 15 6 8 - - 0.0
30/12:00am 25.9 - - - - W 11 15 6 8 - - 0.0
 
Date/Time
WST
Temp
°C
App
Temp
°C
Dew
Point
Rel
Hum
%
Delta-T
°C
Wind Press
QNH
hPa
Press
MSL
hPa
Rain
since 9 am
mm
Dir
 
Spd
km/h
Gust
km/h
Spd
kts
Gust
kts
29/11:30pm 26.1 - - - - WNW 13 20 7 11 - - 0.0
29/11:00pm 26.1 - - - - WNW 13 19 7 10 - - 0.0
29/10:30pm 26.3 - - - - WNW 13 17 7 9 - - 0.0
29/10:00pm 26.2 - - - - WNW 13 17 7 9 - - 0.0
29/09:30pm 26.0 - - - - WNW 11 15 6 8 - - 0.0
29/09:00pm 25.9 - - - - WNW 11 13 6 7 - - 0.0
29/08:30pm 26.1 - - - - W 9 13 5 7 - - 0.0
29/08:00pm 26.3 - - - - W 9 13 5 7 - - 0.0
29/07:30pm 26.6 - - - - WNW 9 13 5 7 - - 0.0
29/07:00pm 26.9 - - - - W 13 15 7 8 - - 0.0
29/06:30pm 27.3 - - - - WNW 13 17 7 9 - - 0.0
29/06:00pm 27.8 - - - - WNW 17 24 9 13 - - 0.0
29/05:30pm 28.8 - - - - W 19 28 10 15 - - 0.0
29/05:00pm 30.0 - - - - W 20 28 11 15 - - 0.0
29/04:30pm 31.4 - - - - WNW 19 32 10 17 - - 0.0
29/04:00pm 32.3 - - - - WNW 22 30 12 16 - - 0.0
29/03:30pm 33.7 - - - - W 20 30 11 16 - - 0.0
29/03:00pm 35.1 - - - - W 19 26 10 14 - - 0.0
29/02:30pm 36.1 - - - - WSW 20 32 11 17 - - 0.0
29/02:00pm 36.9 - - - - WSW 22 32 12 17 - - 0.0
29/01:30pm 36.7 - - - - WSW 19 26 10 14 - - 0.0
29/01:00pm 35.8 - - - - WSW 20 32 11 17 - - 0.0
29/12:30pm 35.0 - - - - WSW 17 26 9 14 - - 0.0
29/12:00pm 34.1 - - - - W 17 24 9 13 - - 0.0
29/11:30am 33.9 - - - - WSW 17 24 9 13 - - 0.0
29/11:00am 34.5 - - - - WSW 19 28 10 15 - - 0.0
29/10:30am 34.4 - - - - WSW 17 24 9 13 - - 0.0
29/10:00am 34.2 - - - - W 13 22 7 12 - - 0.0
29/09:30am 33.1 - - - - WSW 13 19 7 10 - - 0.0
29/09:00am 32.9 - - - - WSW 13 19 7 10 - - 0.0
29/08:30am 31.8 - - - - WSW 13 20 7 11 - - 0.0
29/08:00am 30.7 - - - - WNW 11 20 6 11 - - 0.0
29/07:30am 29.4 - - - - W 11 17 6 9 - - 0.0
29/07:00am 28.3 - - - - WSW 9 13 5 7 - - 0.0
29/06:30am 26.4 - - - - CALM 0 0 0 0 - - 0.0
29/06:00am 24.9 - - - - CALM 0 4 0 2 - - 0.0
29/05:30am 24.2 - - - - WSW 6 9 3 5 - - 0.0
29/05:00am 23.9 - - - - WSW 2 9 1 5 - - 0.0
29/04:30am 24.5 - - - - SW 4 6 2 3 - - 0.0
29/04:00am 24.9 - - - - SW 7 11 4 6 - - 0.0
29/03:30am 24.6 - - - - SW 9 11 5 6 - - 0.0
29/03:00am 24.6 - - - - W 7 9 4 5 - - 0.0
29/02:30am 24.5 - - - - W 9 9 5 5 - - 0.0
29/02:00am 24.4 - - - - W 9 9 5 5 - - 0.0
29/01:30am 24.2 - - - - WSW 7 9 4 5 - - 0.0
29/01:00am 24.8 - - - - S 7 9 4 5 - - 0.0
29/12:30am 25.1 - - - - SW 6 6 3 3 - - 0.0
29/12:00am 25.2 - - - - SW 7 9 4 5 - - 0.0
 
Date/Time
WST
Temp
°C
App
Temp
°C
Dew
Point
Rel
Hum
%
Delta-T
°C
Wind Press
QNH
hPa
Press
MSL
hPa
Rain
since 9 am
mm
Dir
 
Spd
km/h
Gust
km/h
Spd
kts
Gust
kts
28/11:30pm 25.0 - - - - CALM 0 6 0 3 - - 0.0
28/11:00pm 25.2 - - - - W 6 7 3 4 - - 0.0
28/10:30pm 25.7 - - - - NW 7 9 4 5 - - 0.0
28/10:00pm 26.0 - - - - NW 9 11 5 6 - - 0.0
28/09:30pm 26.3 - - - - NW 11 17 6 9 - - 0.0
28/09:00pm 26.6 - - - - NW 13 17 7 9 - - 0.0
28/08:30pm 26.9 - - - - NW 11 17 6 9 - - 0.0
28/08:00pm 27.0 - - - - NW 13 19 7 10 - - 0.0
28/07:30pm 27.0 - - - - WNW 13 19 7 10 - - 0.0
28/07:00pm 27.2 - - - - WNW 13 19 7 10 - - 0.0
28/06:30pm 27.5 - - - - WNW 15 20 8 11 - - 0.0
28/06:00pm 27.8 - - - - WNW 19 26 10 14 - - 0.0
28/05:30pm 28.6 - - - - W 20 28 11 15 - - 0.0
28/05:00pm 29.5 - - - - NW 22 30 12 16 - - 0.0
28/04:30pm 30.8 - - - - WNW 22 32 12 17 - - 0.0
28/04:00pm 32.0 - - - - WNW 20 32 11 17 - - 0.0
28/03:30pm 32.5 - - - - WNW 22 32 12 17 - - 0.0
28/03:00pm 33.1 - - - - W 24 33 13 18 - - 0.0
28/02:30pm 33.8 - - - - W 22 30 12 16 - - 0.0
28/02:00pm 34.6 - - - - WNW 20 30 11 16 - - 0.0
28/01:30pm 35.0 - - - - WNW 22 30 12 16 - - 0.0
28/01:00pm 35.8 - - - - W 19 30 10 16 - - 0.0
28/12:30pm 35.6 - - - - W 15 20 8 11 - - 0.0
28/12:00pm 35.3 - - - - W 19 26 10 14 - - 0.0
28/11:30am 35.6 - - - - W 19 30 10 16 - - 0.0
28/11:00am 34.3 - - - - NW 17 24 9 13 - - 0.0
28/10:30am 34.0 - - - - WNW 19 28 10 15 - - 0.0
28/10:00am 34.0 - - - - W 15 20 8 11 - - 0.0
28/09:30am 32.7 - - - - NNW 11 17 6 9 - - 0.0
28/09:00am 32.4 - - - - WSW 9 17 5 9 - - 0.0
28/08:30am 31.1 - - - - SSE 6 13 3 7 - - 0.0
28/08:00am 30.3 - - - - ENE 4 9 2 5 - - 0.0
28/07:30am 29.0 - - - - E 2 9 1 5 - - 0.0
28/07:00am 27.2 - - - - E 9 13 5 7 - - 0.0
28/06:30am 26.0 - - - - NNE 7 11 4 6 - - 0.0
28/06:00am 24.2 - - - - ENE 7 9 4 5 - - 0.0
28/05:30am 23.8 - - - - E 9 9 5 5 - - 0.0
28/05:00am 23.4 - - - - N 4 7 2 4 - - 0.0
28/04:30am 24.0 - - - - NNW 7 9 4 5 - - 0.0
28/04:00am 24.0 - - - - NNW 7 9 4 5 - - 0.0
28/03:30am 24.0 - - - - WNW 7 7 4 4 - - 0.0
28/03:00am 24.5 - - - - WNW 4 6 2 3 - - 0.0
28/02:30am 25.0 - - - - WNW 7 9 4 5 - - 0.0
28/02:00am 25.1 - - - - NW 13 17 7 9 - - 0.0
28/01:30am 24.6 - - - - NW 13 17 7 9 - - 0.0
28/01:00am 24.4 - - - - NW 9 11 5 6 - - 0.0

Other Formats:

Comma delimited format used in spreadsheet applications
http://www.bom.gov.au/fwo/IDW60801/IDW60801.95204.axf

JavaScript Object Notation format (JSON) in row-major order
http://www.bom.gov.au/fwo/IDW60801/IDW60801.95204.json